sensor_id;sensor_type;location;lat;lon;timestamp;pressure;altitude;pressure_sealevel;temperature;humidity
15880;BME280;61999;51.514;14.614;2023-04-20T00:01:01;100397.72;;;0.94;58.72
15880;BME280;61999;51.514;14.614;2023-04-20T00:03:30;100401.16;;;0.94;58.37
15880;BME280;61999;51.514;14.614;2023-04-20T00:05:58;100395.97;;;0.94;58.11
15880;BME280;61999;51.514;14.614;2023-04-20T00:08:27;100396.06;;;0.91;58.07
15880;BME280;61999;51.514;14.614;2023-04-20T00:10:57;100397.88;;;0.89;57.99
15880;BME280;61999;51.514;14.614;2023-04-20T00:13:25;100382.59;;;0.80;57.55
15880;BME280;61999;51.514;14.614;2023-04-20T00:15:53;100385.41;;;0.74;57.60
15880;BME280;61999;51.514;14.614;2023-04-20T00:18:21;100392.53;;;0.67;57.30
15880;BME280;61999;51.514;14.614;2023-04-20T00:20:48;100385.00;;;0.59;57.57
15880;BME280;61999;51.514;14.614;2023-04-20T00:23:17;100383.50;;;0.52;57.57
15880;BME280;61999;51.514;14.614;2023-04-20T00:25:45;100378.56;;;0.45;56.94
15880;BME280;61999;51.514;14.614;2023-04-20T00:28:16;100383.09;;;0.38;56.79
15880;BME280;61999;51.514;14.614;2023-04-20T00:30:44;100384.13;;;0.32;56.93
15880;BME280;61999;51.514;14.614;2023-04-20T00:33:12;100390.41;;;0.24;57.21
15880;BME280;61999;51.514;14.614;2023-04-20T00:35:40;100391.53;;;0.17;57.23
15880;BME280;61999;51.514;14.614;2023-04-20T00:38:08;100387.28;;;0.14;57.12
15880;BME280;61999;51.514;14.614;2023-04-20T00:40:36;100391.63;;;0.13;58.04
15880;BME280;61999;51.514;14.614;2023-04-20T00:43:11;100387.19;;;0.17;57.89
15880;BME280;61999;51.514;14.614;2023-04-20T00:45:41;100389.66;;;0.20;58.64
15880;BME280;61999;51.514;14.614;2023-04-20T00:48:09;100389.53;;;0.25;58.59
15880;BME280;61999;51.514;14.614;2023-04-20T00:50:38;100387.66;;;0.30;59.03
15880;BME280;61999;51.514;14.614;2023-04-20T00:53:07;100396.16;;;0.35;59.41
15880;BME280;61999;51.514;14.614;2023-04-20T00:55:36;100390.88;;;0.38;59.46
15880;BME280;61999;51.514;14.614;2023-04-20T00:58:05;100387.19;;;0.45;59.63
15880;BME280;61999;51.514;14.614;2023-04-20T01:00:33;100394.06;;;0.46;59.61
15880;BME280;61999;51.514;14.614;2023-04-20T01:03:03;100387.84;;;0.52;59.44
15880;BME280;61999;51.514;14.614;2023-04-20T01:05:33;100376.63;;;0.51;59.64
15880;BME280;61999;51.514;14.614;2023-04-20T01:08:01;100381.09;;;0.46;59.50
15880;BME280;61999;51.514;14.614;2023-04-20T01:10:29;100387.19;;;0.45;60.02
15880;BME280;61999;51.514;14.614;2023-04-20T01:12:57;100389.59;;;0.51;59.83
15880;BME280;61999;51.514;14.614;2023-04-20T01:15:25;100386.91;;;0.54;59.44
15880;BME280;61999;51.514;14.614;2023-04-20T01:17:53;100385.22;;;0.53;59.79
15880;BME280;61999;51.514;14.614;2023-04-20T01:20:25;100381.72;;;0.54;59.94
15880;BME280;61999;51.514;14.614;2023-04-20T01:22:54;100393.00;;;0.53;60.01
15880;BME280;61999;51.514;14.614;2023-04-20T01:25:22;100385.00;;;0.59;60.03
15880;BME280;61999;51.514;14.614;2023-04-20T01:27:51;100392.69;;;0.63;59.61
15880;BME280;61999;51.514;14.614;2023-04-20T01:30:19;100385.84;;;0.60;59.72
15880;BME280;61999;51.514;14.614;2023-04-20T01:32:47;100392.59;;;0.66;59.79
15880;BME280;61999;51.514;14.614;2023-04-20T01:35:15;100383.78;;;0.70;59.42
15880;BME280;61999;51.514;14.614;2023-04-20T01:37:43;100381.09;;;0.73;59.53
15880;BME280;61999;51.514;14.614;2023-04-20T01:40:13;100378.69;;;0.68;59.77
15880;BME280;61999;51.514;14.614;2023-04-20T01:42:41;100375.06;;;0.72;59.54
15880;BME280;61999;51.514;14.614;2023-04-20T01:45:10;100381.09;;;0.73;59.52
15880;BME280;61999;51.514;14.614;2023-04-20T01:47:38;100385.84;;;0.60;60.04
15880;BME280;61999;51.514;14.614;2023-04-20T01:50:07;100383.13;;;0.65;59.58
15880;BME280;61999;51.514;14.614;2023-04-20T01:52:35;100383.03;;;0.68;59.23
15880;BME280;61999;51.514;14.614;2023-04-20T01:55:03;100383.28;;;0.58;59.41
15880;BME280;61999;51.514;14.614;2023-04-20T01:57:33;100377.94;;;0.65;58.92
15880;BME280;61999;51.514;14.614;2023-04-20T02:00:02;100375.22;;;0.68;59.29
15880;BME280;61999;51.514;14.614;2023-04-20T02:02:30;100381.19;;;0.70;58.88
15880;BME280;61999;51.514;14.614;2023-04-20T02:04:58;100381.16;;;0.71;58.78
15880;BME280;61999;51.514;14.614;2023-04-20T02:07:26;100378.56;;;0.71;59.09
15880;BME280;61999;51.514;14.614;2023-04-20T02:09:54;100373.41;;;0.70;58.97
15880;BME280;61999;51.514;14.614;2023-04-20T02:12:22;100375.84;;;0.76;59.12
15880;BME280;61999;51.514;14.614;2023-04-20T02:14:52;100381.03;;;0.76;58.94
15880;BME280;61999;51.514;14.614;2023-04-20T02:17:20;100377.72;;;0.71;58.98
15880;BME280;61999;51.514;14.614;2023-04-20T02:19:48;100378.50;;;0.73;58.87
15880;BME280;61999;51.514;14.614;2023-04-20T02:22:16;100372.44;;;0.74;58.70
15880;BME280;61999;51.514;14.614;2023-04-20T02:24:44;100382.09;;;0.69;58.77
15880;BME280;61999;51.514;14.614;2023-04-20T02:27:11;100389.91;;;0.69;59.22
15880;BME280;61999;51.514;14.614;2023-04-20T02:29:39;100394.88;;;0.75;59.06
15880;BME280;61999;51.514;14.614;2023-04-20T02:32:09;100385.31;;;0.77;58.71
15880;BME280;61999;51.514;14.614;2023-04-20T02:34:37;100384.41;;;0.78;58.66
15880;BME280;61999;51.514;14.614;2023-04-20T02:37:05;100383.50;;;0.79;58.54
15880;BME280;61999;51.514;14.614;2023-04-20T02:39:33;100381.03;;;0.76;58.69
15880;BME280;61999;51.514;14.614;2023-04-20T02:42:01;100388.63;;;0.80;58.98
15880;BME280;61999;51.514;14.614;2023-04-20T02:44:29;100380.00;;;0.80;58.58
15880;BME280;61999;51.514;14.614;2023-04-20T02:46:58;100384.41;;;0.78;58.24
15880;BME280;61999;51.514;14.614;2023-04-20T02:49:27;100385.44;;;0.72;58.02
15880;BME280;61999;51.514;14.614;2023-04-20T02:51:55;100387.63;;;0.58;58.09
15880;BME280;61999;51.514;14.614;2023-04-20T02:54:23;100385.84;;;0.60;57.69
15880;BME280;61999;51.514;14.614;2023-04-20T02:56:51;100392.59;;;0.39;58.26
15880;BME280;61999;51.514;14.614;2023-04-20T02:59:19;100390.78;;;0.41;58.43
15880;BME280;61999;51.514;14.614;2023-04-20T03:01:47;100387.56;;;0.33;58.75
15880;BME280;61999;51.514;14.614;2023-04-20T03:04:14;100387.56;;;0.33;57.81
15880;BME280;61999;51.514;14.614;2023-04-20T03:06:45;100391.31;;;0.23;57.89
15880;BME280;61999;51.514;14.614;2023-04-20T03:09:13;100388.22;;;0.11;58.13
15880;BME280;61999;51.514;14.614;2023-04-20T03:11:41;100381.34;;;0.10;58.57
15880;BME280;61999;51.514;14.614;2023-04-20T03:14:09;100387.31;;;0.12;58.05
15880;BME280;61999;51.514;14.614;2023-04-20T03:16:36;100388.22;;;0.11;57.97
15880;BME280;61999;51.514;14.614;2023-04-20T03:19:04;100391.63;;;0.13;58.50
15880;BME280;61999;51.514;14.614;2023-04-20T03:21:33;100390.06;;;0.08;58.47
15880;BME280;61999;51.514;14.614;2023-04-20T03:24:03;100397.94;;;0.05;58.69
15880;BME280;61999;51.514;14.614;2023-04-20T03:26:32;100402.69;;;-0.11;59.24
15880;BME280;61999;51.514;14.614;2023-04-20T03:29:00;100401.00;;;-0.12;58.86
15880;BME280;61999;51.514;14.614;2023-04-20T03:31:28;100400.94;;;-0.09;59.19
15880;BME280;61999;51.514;14.614;2023-04-20T03:33:56;100406.72;;;-0.01;58.60
15880;BME280;61999;51.514;14.614;2023-04-20T03:36:24;100405.09;;;-0.05;58.92
15880;BME280;61999;51.514;14.614;2023-04-20T03:38:53;100414.84;;;-0.13;59.40
15880;BME280;61999;51.514;14.614;2023-04-20T03:41:23;100414.75;;;-0.10;59.37
15880;BME280;61999;51.514;14.614;2023-04-20T03:43:51;100418.16;;;-0.08;59.28
15880;BME280;61999;51.514;14.614;2023-04-20T03:46:19;100418.06;;;-0.05;59.12
15880;BME280;61999;51.514;14.614;2023-04-20T03:48:48;100417.09;;;-0.01;58.67
15880;BME280;61999;51.514;14.614;2023-04-20T03:51:16;100418.69;;;0.03;58.78
15880;BME280;61999;51.514;14.614;2023-04-20T03:53:44;100416.09;;;0.03;58.99
15880;BME280;61999;51.514;14.614;2023-04-20T03:56:12;100417.72;;;0.07;58.70
15880;BME280;61999;51.514;14.614;2023-04-20T03:58:42;100414.31;;;0.05;58.89
15880;BME280;61999;51.514;14.614;2023-04-20T04:01:10;100411.53;;;0.11;58.80
15880;BME280;61999;51.514;14.614;2023-04-20T04:03:38;100412.25;;;0.17;58.64
15880;BME280;61999;51.514;14.614;2023-04-20T04:06:08;100411.34;;;0.18;58.61
15880;BME280;61999;51.514;14.614;2023-04-20T04:08:36;100413.00;;;0.20;58.69
15880;BME280;61999;51.514;14.614;2023-04-20T04:11:04;100421.63;;;0.21;58.67
15880;BME280;61999;51.514;14.614;2023-04-20T04:13:32;100420.66;;;0.25;58.60
15880;BME280;61999;51.514;14.614;2023-04-20T04:16:01;100423.97;;;0.30;58.85
15880;BME280;61999;51.514;14.614;2023-04-20T04:18:30;100428.22;;;0.32;58.69
15880;BME280;61999;51.514;14.614;2023-04-20T04:20:58;100433.28;;;0.37;58.54
15880;BME280;61999;51.514;14.614;2023-04-20T04:23:26;100429.78;;;0.38;58.78
15880;BME280;61999;51.514;14.614;2023-04-20T04:25:54;100419.47;;;0.36;58.88
15880;BME280;61999;51.514;14.614;2023-04-20T04:28:22;100420.22;;;0.40;59.05
15880;BME280;61999;51.514;14.614;2023-04-20T04:30:50;100422.84;;;0.38;59.28
15880;BME280;61999;51.514;14.614;2023-04-20T04:33:21;100426.09;;;0.45;58.69
15880;BME280;61999;51.514;14.614;2023-04-20T04:35:50;100423.50;;;0.45;59.02
15880;BME280;61999;51.514;14.614;2023-04-20T04:38:19;100426.91;;;0.47;58.75
15880;BME280;61999;51.514;14.614;2023-04-20T04:40:47;100419.91;;;0.49;58.86
15880;BME280;61999;51.514;14.614;2023-04-20T04:43:15;100426.72;;;0.53;58.64
15880;BME280;61999;51.514;14.614;2023-04-20T04:45:45;100425.81;;;0.54;58.40
15880;BME280;61999;51.514;14.614;2023-04-20T04:48:13;100427.94;;;0.42;58.60
15880;BME280;61999;51.514;14.614;2023-04-20T04:50:42;100430.59;;;0.40;59.05
15880;BME280;61999;51.514;14.614;2023-04-20T04:53:10;100428.47;;;0.23;58.61
15880;BME280;61999;51.514;14.614;2023-04-20T04:55:38;100429.16;;;0.30;59.05
15880;BME280;61999;51.514;14.614;2023-04-20T04:58:06;100430.59;;;0.40;58.26
15880;BME280;61999;51.514;14.614;2023-04-20T05:00:34;100425.69;;;0.31;58.24
15880;BME280;61999;51.514;14.614;2023-04-20T05:03:02;100421.34;;;0.31;57.87
15880;BME280;61999;51.514;14.614;2023-04-20T05:05:30;100420.50;;;0.31;58.25
15880;BME280;61999;51.514;14.614;2023-04-20T05:07:59;100423.97;;;0.30;57.89
15880;BME280;61999;51.514;14.614;2023-04-20T05:10:27;100422.28;;;0.29;57.89
15880;BME280;61999;51.514;14.614;2023-04-20T05:12:56;100416.25;;;0.28;58.05
15880;BME280;61999;51.514;14.614;2023-04-20T05:15:24;100415.25;;;0.32;57.76
15880;BME280;61999;51.514;14.614;2023-04-20T05:17:53;100416.16;;;0.31;57.89
15880;BME280;61999;51.514;14.614;2023-04-20T05:20:21;100427.28;;;0.35;57.42
15880;BME280;61999;51.514;14.614;2023-04-20T05:22:49;100424.66;;;0.36;57.48
15880;BME280;61999;51.514;14.614;2023-04-20T05:25:19;100427.19;;;0.38;57.93
15880;BME280;61999;51.514;14.614;2023-04-20T05:27:47;100426.22;;;0.41;57.68
15880;BME280;61999;51.514;14.614;2023-04-20T05:30:15;100429.56;;;0.44;58.00
15880;BME280;61999;51.514;14.614;2023-04-20T05:32:46;100435.47;;;0.49;57.68
15880;BME280;61999;51.514;14.614;2023-04-20T05:35:16;100438.88;;;0.51;58.00
15880;BME280;61999;51.514;14.614;2023-04-20T05:37:44;100440.53;;;0.54;57.76
15880;BME280;61999;51.514;14.614;2023-04-20T05:40:13;100433.50;;;0.57;58.30
15880;BME280;61999;51.514;14.614;2023-04-20T05:42:42;100442.09;;;0.59;58.00
15880;BME280;61999;51.514;14.614;2023-04-20T05:45:10;100440.19;;;0.65;58.09
15880;BME280;61999;51.514;14.614;2023-04-20T05:47:38;100432.31;;;0.68;58.13
15880;BME280;61999;51.514;14.614;2023-04-20T05:50:08;100443.38;;;0.73;58.35
15880;BME280;61999;51.514;14.614;2023-04-20T05:52:37;100452.06;;;0.72;58.37
15880;BME280;61999;51.514;14.614;2023-04-20T05:55:06;100449.16;;;0.81;58.26
15880;BME280;61999;51.514;14.614;2023-04-20T05:57:34;100448.19;;;0.85;58.25
15880;BME280;61999;51.514;14.614;2023-04-20T06:00:14;100446.38;;;0.87;58.44
15880;BME280;61999;51.514;14.614;2023-04-20T06:02:42;100448.72;;;0.95;58.76
15880;BME280;61999;51.514;14.614;2023-04-20T06:05:10;100452.97;;;0.97;58.57
15880;BME280;61999;51.514;14.614;2023-04-20T06:07:38;100458.75;;;1.05;58.42
15880;BME280;61999;51.514;14.614;2023-04-20T06:10:07;100466.34;;;1.12;58.29
15880;BME280;61999;51.514;14.614;2023-04-20T06:12:36;100475.78;;;1.14;58.37
15880;BME280;61999;51.514;14.614;2023-04-20T06:15:05;100470.47;;;1.17;58.16
15880;BME280;61999;51.514;14.614;2023-04-20T06:17:38;100478.25;;;1.19;58.18
15880;BME280;61999;51.514;14.614;2023-04-20T06:20:08;100471.22;;;1.21;58.11
15880;BME280;61999;51.514;14.614;2023-04-20T06:22:41;100468.47;;;1.25;58.01
15880;BME280;61999;51.514;14.614;2023-04-20T06:25:11;100469.22;;;1.29;58.19
15880;BME280;61999;51.514;14.614;2023-04-20T06:27:41;100467.44;;;1.31;58.23
15880;BME280;61999;51.514;14.614;2023-04-20T06:30:10;100460.50;;;1.30;58.15
15880;BME280;61999;51.514;14.614;2023-04-20T06:32:39;100459.28;;;1.42;58.47
15880;BME280;61999;51.514;14.614;2023-04-20T06:35:08;100466.09;;;1.44;57.76
15880;BME280;61999;51.514;14.614;2023-04-20T06:37:36;100463.03;;;1.33;57.85
15880;BME280;61999;51.514;14.614;2023-04-20T06:40:07;100455.31;;;1.30;58.12
15880;BME280;61999;51.514;14.614;2023-04-20T06:42:35;100456.72;;;1.40;58.50
15880;BME280;61999;51.514;14.614;2023-04-20T06:45:05;100453.84;;;1.48;58.19
15880;BME280;61999;51.514;14.614;2023-04-20T06:47:33;100462.69;;;1.67;58.18
15880;BME280;61999;51.514;14.614;2023-04-20T06:50:05;100454.25;;;1.86;58.16
15880;BME280;61999;51.514;14.614;2023-04-20T06:52:36;100450.72;;;1.88;57.94
15880;BME280;61999;51.514;14.614;2023-04-20T06:55:04;100446.53;;;2.08;57.77
15880;BME280;61999;51.514;14.614;2023-04-20T06:57:32;100446.16;;;2.17;57.85
15880;BME280;61999;51.514;14.614;2023-04-20T07:00:01;100456.09;;;2.29;57.85
15880;BME280;61999;51.514;14.614;2023-04-20T07:02:29;100467.03;;;2.39;57.31
15880;BME280;61999;51.514;14.614;2023-04-20T07:04:59;100462.78;;;2.36;57.15
15880;BME280;61999;51.514;14.614;2023-04-20T07:07:29;100475.34;;;2.25;57.80
15880;BME280;61999;51.514;14.614;2023-04-20T07:09:57;100475.78;;;2.36;58.35
15880;BME280;61999;51.514;14.614;2023-04-20T07:12:25;100467.78;;;2.41;56.82
15880;BME280;61999;51.514;14.614;2023-04-20T07:14:53;100477.28;;;2.64;57.05
15880;BME280;61999;51.514;14.614;2023-04-20T07:17:21;100474.22;;;2.54;56.21
15880;BME280;61999;51.514;14.614;2023-04-20T07:19:49;100474.03;;;2.59;56.53
15880;BME280;61999;51.514;14.614;2023-04-20T07:22:18;100472.88;;;2.66;56.83
15880;BME280;61999;51.514;14.614;2023-04-20T07:24:47;100470.59;;;2.80;57.12
15880;BME280;61999;51.514;14.614;2023-04-20T07:27:15;100470.31;;;2.87;56.90
15880;BME280;61999;51.514;14.614;2023-04-20T07:29:43;100473.59;;;2.92;56.55
15880;BME280;61999;51.514;14.614;2023-04-20T07:32:11;100467.72;;;2.87;56.69
15880;BME280;61999;51.514;14.614;2023-04-20T07:34:39;100467.84;;;2.83;56.57
15880;BME280;61999;51.514;14.614;2023-04-20T07:37:07;100471.91;;;2.91;56.56
15880;BME280;61999;51.514;14.614;2023-04-20T07:39:35;100471.78;;;2.94;56.53
15880;BME280;61999;51.514;14.614;2023-04-20T07:42:04;100471.66;;;2.97;56.70
15880;BME280;61999;51.514;14.614;2023-04-20T07:44:32;100470.69;;;2.99;56.67
15880;BME280;61999;51.514;14.614;2023-04-20T07:47:02;100473.81;;;3.07;56.56
15880;BME280;61999;51.514;14.614;2023-04-20T07:49:30;100474.53;;;3.11;56.54
15880;BME280;61999;51.514;14.614;2023-04-20T07:51:58;100474.28;;;3.17;56.52
15880;BME280;61999;51.514;14.614;2023-04-20T07:54:31;100471.69;;;3.17;56.54
15880;BME280;61999;51.514;14.614;2023-04-20T07:57:00;100465.56;;;3.18;56.38
15880;BME280;61999;51.514;14.614;2023-04-20T07:59:30;100472.13;;;3.28;56.53
15880;BME280;61999;51.514;14.614;2023-04-20T08:02:00;100472.13;;;3.28;55.98
15880;BME280;61999;51.514;14.614;2023-04-20T08:04:28;100470.34;;;3.29;55.96
15880;BME280;61999;51.514;14.614;2023-04-20T08:06:57;100475.25;;;3.37;56.04
15880;BME280;61999;51.514;14.614;2023-04-20T08:09:25;100477.59;;;3.43;56.05
15880;BME280;61999;51.514;14.614;2023-04-20T08:11:54;100476.06;;;3.58;56.02
15880;BME280;61999;51.514;14.614;2023-04-20T08:14:22;100479.53;;;3.58;55.49
15880;BME280;61999;51.514;14.614;2023-04-20T08:16:51;100470.25;;;3.71;55.57
15880;BME280;61999;51.514;14.614;2023-04-20T08:19:19;100479.03;;;3.89;55.92
15880;BME280;61999;51.514;14.614;2023-04-20T08:21:49;100476.84;;;3.99;55.52
15880;BME280;61999;51.514;14.614;2023-04-20T08:24:17;100478.97;;;3.91;55.38
15880;BME280;61999;51.514;14.614;2023-04-20T08:26:46;100486.75;;;4.11;55.44
15880;BME280;61999;51.514;14.614;2023-04-20T08:29:14;100480.41;;;4.17;55.26
15880;BME280;61999;51.514;14.614;2023-04-20T08:31:42;100486.53;;;4.35;54.87
15880;BME280;61999;51.514;14.614;2023-04-20T08:34:12;100475.66;;;4.44;54.74
15880;BME280;61999;51.514;14.614;2023-04-20T08:36:40;100467.53;;;4.50;54.73
15880;BME280;61999;51.514;14.614;2023-04-20T08:39:10;100473.81;;;4.46;54.34
15880;BME280;61999;51.514;14.614;2023-04-20T08:41:39;100473.41;;;4.55;54.39
15880;BME280;61999;51.514;14.614;2023-04-20T08:44:07;100468.59;;;4.46;53.21
15880;BME280;61999;51.514;14.614;2023-04-20T08:46:39;100479.34;;;4.40;53.73
15880;BME280;61999;51.514;14.614;2023-04-20T08:49:14;100471.59;;;4.57;54.11
15880;BME280;61999;51.514;14.614;2023-04-20T08:51:44;100475.59;;;4.64;53.43
15880;BME280;61999;51.514;14.614;2023-04-20T08:54:13;100486.66;;;4.70;54.17
15880;BME280;61999;51.514;14.614;2023-04-20T08:56:44;100478.06;;;4.85;53.62
15880;BME280;61999;51.514;14.614;2023-04-20T08:59:13;100477.16;;;4.86;53.51
15880;BME280;61999;51.514;14.614;2023-04-20T09:01:43;100474.56;;;5.03;53.74
15880;BME280;61999;51.514;14.614;2023-04-20T09:04:18;100467.72;;;5.18;53.56
15880;BME280;61999;51.514;14.614;2023-04-20T09:06:49;100454.44;;;5.40;53.97
15880;BME280;61999;51.514;14.614;2023-04-20T09:09:18;100464.69;;;5.61;53.72
15880;BME280;61999;51.514;14.614;2023-04-20T09:11:47;100457.78;;;5.77;53.98
15880;BME280;61999;51.514;14.614;2023-04-20T09:14:25;100462.28;;;6.07;53.10
15880;BME280;61999;51.514;14.614;2023-04-20T09:16:56;100460.28;;;6.43;53.45
15880;BME280;61999;51.514;14.614;2023-04-20T09:19:30;100462.47;;;6.83;52.10
15880;BME280;61999;51.514;14.614;2023-04-20T09:21:59;100461.91;;;7.22;52.31
15880;BME280;61999;51.514;14.614;2023-04-20T09:24:31;100457.22;;;7.13;49.79
15880;BME280;61999;51.514;14.614;2023-04-20T09:27:01;100460.69;;;7.72;50.46
15880;BME280;61999;51.514;14.614;2023-04-20T09:29:29;100457.88;;;8.04;49.67
15880;BME280;61999;51.514;14.614;2023-04-20T09:31:57;100464.59;;;8.22;48.27
15880;BME280;61999;51.514;14.614;2023-04-20T09:34:25;100460.03;;;8.53;47.97
15880;BME280;61999;51.514;14.614;2023-04-20T09:36:55;100459.16;;;8.40;46.47
15880;BME280;61999;51.514;14.614;2023-04-20T09:39:23;100447.13;;;8.36;44.95
15880;BME280;61999;51.514;14.614;2023-04-20T09:41:52;100445.50;;;8.48;46.16
15880;BME280;61999;51.514;14.614;2023-04-20T09:44:20;100448.53;;;8.68;46.25
15880;BME280;61999;51.514;14.614;2023-04-20T09:46:48;100454.16;;;8.77;45.77
15880;BME280;61999;51.514;14.614;2023-04-20T09:49:18;100439.41;;;8.47;44.13
15880;BME280;61999;51.514;14.614;2023-04-20T09:51:47;100438.84;;;8.42;44.60
15880;BME280;61999;51.514;14.614;2023-04-20T09:54:18;100441.28;;;8.45;45.53
15880;BME280;61999;51.514;14.614;2023-04-20T09:56:48;100434.53;;;8.41;45.64
15880;BME280;61999;51.514;14.614;2023-04-20T09:59:17;100438.41;;;8.35;45.89
15880;BME280;61999;51.514;14.614;2023-04-20T10:01:46;100424.81;;;7.87;44.86
15880;BME280;61999;51.514;14.614;2023-04-20T10:04:14;100436.69;;;7.93;46.16
15880;BME280;61999;51.514;14.614;2023-04-20T10:06:52;100434.03;;;8.21;45.76
15880;BME280;61999;51.514;14.614;2023-04-20T10:09:24;100442.66;;;8.23;46.11
15880;BME280;61999;51.514;14.614;2023-04-20T10:12:04;100442.47;;;8.27;46.44
15880;BME280;61999;51.514;14.614;2023-04-20T10:14:32;100447.53;;;8.30;47.04
15880;BME280;61999;51.514;14.614;2023-04-20T10:17:03;100449.41;;;8.28;46.84
15880;BME280;61999;51.514;14.614;2023-04-20T10:19:37;100451.78;;;8.18;45.92
15880;BME280;61999;51.514;14.614;2023-04-20T10:22:06;100447.38;;;8.04;46.71
15880;BME280;61999;51.514;14.614;2023-04-20T10:24:36;100446.06;;;7.83;46.59
15880;BME280;61999;51.514;14.614;2023-04-20T10:27:15;100443.59;;;7.51;47.20
15880;BME280;61999;51.514;14.614;2023-04-20T10:29:44;100437.69;;;7.47;47.22
15880;BME280;61999;51.514;14.614;2023-04-20T10:32:21;100435.53;;;7.68;47.37
15880;BME280;61999;51.514;14.614;2023-04-20T10:35:02;100433.81;;;7.83;47.44
15880;BME280;61999;51.514;14.614;2023-04-20T10:37:30;100430.28;;;7.68;47.10
15880;BME280;61999;51.514;14.614;2023-04-20T10:40:00;100426.94;;;7.66;47.73
15880;BME280;61999;51.514;14.614;2023-04-20T10:42:41;100420.38;;;7.59;47.86
15880;BME280;61999;51.514;14.614;2023-04-20T10:45:11;100411.19;;;7.66;47.89
15880;BME280;61999;51.514;14.614;2023-04-20T10:47:39;100421.31;;;7.72;47.67
15880;BME280;61999;51.514;14.614;2023-04-20T10:50:09;100420.78;;;7.82;47.83
15880;BME280;61999;51.514;14.614;2023-04-20T10:52:40;100419.25;;;7.77;48.08
15880;BME280;61999;51.514;14.614;2023-04-20T10:55:19;100417.19;;;7.68;47.84
15880;BME280;61999;51.514;14.614;2023-04-20T10:57:47;100414.56;;;7.68;48.17
15880;BME280;61999;51.514;14.614;2023-04-20T11:00:18;100414.22;;;7.89;48.39
15880;BME280;61999;51.514;14.614;2023-04-20T11:02:48;100405.56;;;7.72;48.68
15880;BME280;61999;51.514;14.614;2023-04-20T11:05:17;100405.56;;;7.72;49.13
15880;BME280;61999;51.514;14.614;2023-04-20T11:07:53;100407.66;;;7.82;48.92
15880;BME280;61999;51.514;14.614;2023-04-20T11:10:36;100400.13;;;7.75;48.88
15880;BME280;61999;51.514;14.614;2023-04-20T11:13:04;100391.44;;;7.61;49.28
15880;BME280;61999;51.514;14.614;2023-04-20T11:15:33;100391.69;;;7.70;49.44
15880;BME280;61999;51.514;14.614;2023-04-20T11:18:06;100399.75;;;7.53;49.47
15880;BME280;61999;51.514;14.614;2023-04-20T11:20:35;100392.84;;;7.38;50.00
15880;BME280;61999;51.514;14.614;2023-04-20T11:23:03;100393.94;;;7.62;49.50
15880;BME280;61999;51.514;14.614;2023-04-20T11:25:33;100382.53;;;7.49;49.41
15880;BME280;61999;51.514;14.614;2023-04-20T11:28:05;100389.66;;;7.47;49.74
15880;BME280;61999;51.514;14.614;2023-04-20T11:30:38;100392.25;;;7.32;50.13
15880;BME280;61999;51.514;14.614;2023-04-20T11:33:07;100397.69;;;7.29;49.78
15880;BME280;61999;51.514;14.614;2023-04-20T11:35:36;100389.84;;;7.44;49.74
15880;BME280;61999;51.514;14.614;2023-04-20T11:38:04;100381.78;;;7.61;49.50
15880;BME280;61999;51.514;14.614;2023-04-20T11:40:34;100381.78;;;7.61;49.88
15880;BME280;61999;51.514;14.614;2023-04-20T11:43:03;100391.50;;;7.88;49.78
15880;BME280;61999;51.514;14.614;2023-04-20T11:45:32;100381.00;;;7.88;49.76
15880;BME280;61999;51.514;14.614;2023-04-20T11:48:01;100386.81;;;8.34;48.90
15880;BME280;61999;51.514;14.614;2023-04-20T11:50:30;100382.00;;;8.41;48.15
15880;BME280;61999;51.514;14.614;2023-04-20T11:52:58;100382.41;;;8.35;48.79
15880;BME280;61999;51.514;14.614;2023-04-20T11:55:26;100391.47;;;8.43;48.35
15880;BME280;61999;51.514;14.614;2023-04-20T11:57:55;100380.56;;;8.62;48.15
15880;BME280;61999;51.514;14.614;2023-04-20T12:00:23;100379.81;;;8.87;47.60
15880;BME280;61999;51.514;14.614;2023-04-20T12:02:54;100377.34;;;9.11;47.27
15880;BME280;61999;51.514;14.614;2023-04-20T12:05:24;100379.84;;;9.00;47.42
15880;BME280;61999;51.514;14.614;2023-04-20T12:07:52;100366.28;;;9.32;46.63
15880;BME280;61999;51.514;14.614;2023-04-20T12:10:20;100366.41;;;9.93;45.57
15880;BME280;61999;51.514;14.614;2023-04-20T12:12:48;100361.38;;;10.62;45.16
15880;BME280;61999;51.514;14.614;2023-04-20T12:15:18;100362.34;;;11.19;43.35
15880;BME280;61999;51.514;14.614;2023-04-20T12:17:46;100352.16;;;11.81;42.65
15880;BME280;61999;51.514;14.614;2023-04-20T12:20:14;100350.00;;;11.87;42.02
15880;BME280;61999;51.514;14.614;2023-04-20T12:22:42;100345.66;;;12.61;41.12
15880;BME280;61999;51.514;14.614;2023-04-20T12:25:10;100347.00;;;13.80;40.13
15880;BME280;61999;51.514;14.614;2023-04-20T12:27:38;100348.75;;;14.39;39.07
15880;BME280;61999;51.514;14.614;2023-04-20T12:30:07;100345.94;;;15.36;37.26
15880;BME280;61999;51.514;14.614;2023-04-20T12:32:37;100341.41;;;15.74;35.64
15880;BME280;61999;51.514;14.614;2023-04-20T12:35:06;100336.69;;;16.32;34.24
15880;BME280;61999;51.514;14.614;2023-04-20T12:37:35;100330.69;;;16.65;32.88
15880;BME280;61999;51.514;14.614;2023-04-20T12:40:04;100315.72;;;16.28;33.10
15880;BME280;61999;51.514;14.614;2023-04-20T12:42:33;100318.06;;;16.32;34.02
15880;BME280;61999;51.514;14.614;2023-04-20T12:45:01;100315.91;;;16.97;33.96
15880;BME280;61999;51.514;14.614;2023-04-20T12:47:29;100310.22;;;16.48;32.16
15880;BME280;61999;51.514;14.614;2023-04-20T12:49:58;100309.34;;;16.21;32.92
15880;BME280;61999;51.514;14.614;2023-04-20T12:52:26;100308.41;;;15.95;32.41
15880;BME280;61999;51.514;14.614;2023-04-20T12:54:54;100304.19;;;15.47;33.46
15880;BME280;61999;51.514;14.614;2023-04-20T12:57:22;100299.28;;;14.77;33.09
15880;BME280;61999;51.514;14.614;2023-04-20T12:59:50;100298.84;;;14.72;34.08